Historyczne dane pomiarowe

Dodano dane terminowe – wersja testowa.

Dane z okresu 1951-2019

Wersja bazy: 1.34 [2019-03-16, lista zmian], aktualizacja planowana na 2019-04-15

Dane meteo z obszaru Polski uzyskane na podstawie danych udostępnionych przez Instytut Meteorologii i Gospodarki Wodnej – Państwowy Instytut Badawczy.

 

Wybierz Datę:    

       

TemperaturaWilgotnośćWiatrCiśnienieOpadyŚniegCzas trwania zjawisk
 Stacja t tx tn tng RH VA  wxwx mslp ppp RRR   cm mm wxwxwxwxwxwxwx
1959-06-13 18.2 27.1 11.8- 75.8- 5.7 2.0---- 0.0------------
1959-06-14 14.5 19.0 10.2- 57.5- 3.3 2.0---- 0.0------------
1959-06-15 15.7 23.1 6.8- 55.3- 2.3 3.3---- 0.0------------
1959-06-16 10.9 16.0 6.8- 82.3- 3.3 4.3---- 5.2------------
1959-06-17 15.7 21.0 7.8- 71.5- 5.7 3.0---- 0.0------------
1959-06-18 21.2 28.3 9.7- 57.0- 3.0 3.0---- 0.0------------
1959-06-19 14.5 21.6 11.0- 59.5- 4.7 2.0---- 0.0------------
1959-06-20 13.3 19.8 2.9- 56.3- 2.0 2.0---- 0.0------------
1959-06-21 15.4 23.1 2.4- 58.0- 0.0 1.0---- 0.0------------
1959-06-22 13.5 19.5 6.9- 64.0- 0.0 3.3---- 0.0------------
1959-06-23 14.1 20.0 5.2- 52.3- 2.7 2.7---- 0.0------------
1959-06-24 15.6 22.6 7.1- 71.0- 2.3 1.3---- 0.0------------
1959-06-25 15.4 23.1 7.2- 65.3- 3.3 1.7---- 0.0------------
1959-06-26 17.5 25.4 6.9- 70.0- 3.7 1.7---- 0.0------------
1959-06-27 20.7 28.3 8.8- 64.3- 3.3 1.3---- 0.0------------
1959-06-28 16.4 21.6 8.7- 83.5- 6.7 1.3---- 3.6------------
1959-06-29 16.3 21.8 13.2- 86.8- 7.7 1.7---- 5.0------------
1959-06-30 15.5 20.0 12.2- 89.0- 8.0 1.0---- 2.6------------
1959-07-01 16.3 20.6 11.5- 80.0- 6.7 2.7---- 1.0------------
1959-07-02 13.2 16.0 11.7- 88.0- 7.0 3.0---- 12.0------------
1959-07-03 14.8 19.8 10.7- 83.3- 6.0 2.7---- 0.0------------
1959-07-04 16.7 20.7 13.1- 81.0- 5.0 1.7---- 0.0------------
1959-07-05 18.2 26.1 8.5- 75.8- 4.0 1.3---- 0.0------------
1959-07-06 21.4 29.1 9.0- 60.8- 1.7 0.7---- 0.0------------
1959-07-07 20.6 28.1 12.7- 63.5- 2.3 2.3---- 0.0------------
1959-07-08 21.6 29.1 10.5- 71.5- 0.0 2.0---- 0.0------------
1959-07-09 25.5 33.1 11.4- 56.0- 0.7 1.3---- 0.0------------
1959-07-10 28.2 36.1 15.7- 55.3- 0.3 1.7---- 0.0------------
1959-07-11 26.7 35.5 15.1- 74.5- 0.7 1.3---- 0.0------------
1959-07-12 27.7 37.0 17.4- 85.0- 2.7 1.3---- 0.0------------
87.2 ms

 

Źródłem pochodzenia danych jest Instytut Meteorologii i Gospodarki Wodnej – Państwowy Instytut Badawczy. Dane Instytutu Meteorologii i Gospodarki Wodnej – Państwowego Instytutu Badawczego zostały przetworzone.

Dane źródłowe można odnaleźć na stronie https://dane.imgw.pl